createdAt,value
2018-10-12T00:00:21.901Z,974.05
2018-10-12T00:01:21.961Z,974.09
2018-10-12T00:02:22.015Z,974.04
2018-10-12T00:03:22.038Z,974.03
2018-10-12T00:04:22.088Z,974.04
2018-10-12T00:05:22.136Z,974.00
2018-10-12T00:06:22.184Z,974.02
2018-10-12T00:07:22.267Z,974.02
2018-10-12T00:08:22.302Z,974.04
2018-10-12T00:09:22.329Z,974.02
2018-10-12T00:10:22.385Z,974.00
2018-10-12T00:11:22.434Z,974.03
2018-10-12T00:12:22.470Z,974.03
2018-10-12T00:13:22.552Z,974.03
2018-10-12T00:14:22.576Z,974.05
2018-10-12T00:15:22.621Z,974.04
2018-10-12T00:16:22.710Z,974.07
2018-10-12T00:17:22.709Z,974.06
2018-10-12T00:18:22.780Z,974.10
2018-10-12T00:19:22.810Z,974.10
2018-10-12T00:20:22.867Z,974.13
2018-10-12T00:21:22.908Z,974.15
2018-10-12T00:22:22.960Z,974.17
2018-10-12T00:23:23.092Z,974.13
2018-10-12T00:24:23.047Z,974.16
2018-10-12T00:25:23.125Z,974.15
2018-10-12T00:26:23.145Z,974.15
2018-10-12T00:27:23.534Z,974.14
2018-10-12T00:28:23.241Z,974.21
2018-10-12T00:29:23.289Z,974.23
2018-10-12T00:30:23.402Z,974.24
2018-10-12T00:31:23.386Z,974.24
2018-10-12T00:32:23.436Z,974.29
2018-10-12T00:33:23.500Z,974.30
2018-10-12T00:34:23.532Z,974.32
2018-10-12T00:35:23.593Z,974.38
2018-10-12T00:36:23.624Z,974.34
2018-10-12T00:37:23.709Z,974.36
2018-10-12T00:38:23.720Z,974.35
2018-10-12T00:39:23.767Z,974.40
2018-10-12T00:40:23.830Z,974.42
2018-10-12T00:41:23.881Z,974.40
2018-10-12T00:42:23.936Z,974.39
2018-10-12T00:43:23.958Z,974.42
2018-10-12T00:44:24.005Z,974.42
2018-10-12T00:45:24.053Z,974.45
2018-10-12T00:46:24.120Z,974.43
2018-10-12T00:47:24.152Z,974.44
2018-10-12T00:48:24.227Z,974.48
2018-10-12T00:49:24.262Z,974.47
2018-10-12T00:50:24.294Z,974.45
2018-10-12T00:51:24.346Z,974.44
2018-10-12T00:52:24.395Z,974.47
2018-10-12T00:53:24.461Z,974.50
2018-10-12T00:54:24.489Z,974.51
2018-10-12T00:55:24.534Z,974.46
2018-10-12T00:56:24.582Z,974.52
2018-10-12T00:57:24.635Z,974.52
2018-10-12T00:58:24.695Z,974.54
2018-10-12T00:59:24.730Z,974.56
2018-10-12T01:00:24.777Z,974.52
2018-10-12T01:01:24.829Z,974.56
2018-10-12T01:02:24.899Z,974.58
2018-10-12T01:03:24.918Z,974.60
2018-10-12T01:04:25.023Z,974.62
2018-10-12T01:05:25.014Z,974.59
2018-10-12T01:06:25.082Z,974.61
2018-10-12T01:07:25.121Z,974.61
2018-10-12T01:08:25.159Z,974.66
2018-10-12T01:09:25.208Z,974.62
2018-10-12T01:10:25.259Z,974.66
2018-10-12T01:11:25.324Z,974.66
2018-10-12T01:12:25.357Z,974.65
2018-10-12T01:13:25.419Z,974.61
2018-10-12T01:14:25.472Z,974.59
2018-10-12T01:15:25.496Z,974.61
2018-10-12T01:16:25.562Z,974.57
2018-10-12T01:17:25.610Z,974.57
2018-10-12T01:18:25.658Z,974.54
2018-10-12T01:19:25.690Z,974.53
2018-10-12T01:20:25.738Z,974.55
2018-10-12T01:21:26.519Z,974.51
2018-10-12T01:22:25.851Z,974.54
2018-10-12T01:23:25.883Z,974.50
2018-10-12T01:24:25.927Z,974.49
2018-10-12T01:25:25.996Z,974.51
2018-10-12T01:26:26.024Z,974.55
2018-10-12T01:27:26.084Z,974.51
2018-10-12T01:28:26.136Z,974.50
2018-10-12T01:29:26.167Z,974.53
2018-10-12T01:30:26.213Z,974.54
2018-10-12T01:31:26.294Z,974.46
2018-10-12T01:32:26.314Z,974.48
2018-10-12T01:33:26.381Z,974.51
2018-10-12T01:34:26.411Z,974.49
2018-10-12T01:35:26.481Z,974.48
2018-10-12T01:36:26.503Z,974.52
2018-10-12T01:37:27.200Z,974.57
2018-10-12T01:38:26.622Z,974.57
2018-10-12T01:39:26.652Z,974.57
2018-10-12T01:40:26.701Z,974.61
2018-10-12T01:41:26.768Z,974.62
2018-10-12T01:42:26.792Z,974.65
2018-10-12T01:43:26.838Z,974.68
2018-10-12T01:44:26.890Z,974.73
2018-10-12T01:45:26.937Z,974.78
2018-10-12T01:46:27.005Z,974.82
2018-10-12T01:47:27.032Z,974.85
2018-10-12T01:48:27.095Z,974.91
2018-10-12T01:49:27.128Z,974.88
2018-10-12T01:50:27.180Z,974.84
2018-10-12T01:51:27.224Z,974.82
2018-10-12T01:52:27.273Z,974.77
2018-10-12T01:53:27.338Z,974.76
2018-10-12T01:54:27.367Z,974.74
2018-10-12T01:55:27.420Z,974.73
2018-10-12T01:56:27.466Z,974.74
2018-10-12T01:57:27.532Z,974.72
2018-10-12T01:58:27.564Z,974.75
2018-10-12T01:59:27.608Z,974.74
2018-10-12T02:00:27.675Z,974.76
2018-10-12T02:01:27.703Z,974.72
2018-10-12T02:02:27.768Z,974.75
2018-10-12T02:03:27.815Z,974.69
2018-10-12T02:04:27.857Z,974.68
2018-10-12T02:05:27.902Z,974.71
2018-10-12T02:06:27.945Z,974.71
2018-10-12T02:07:27.998Z,974.68
2018-10-12T02:08:28.064Z,974.70
2018-10-12T02:09:28.088Z,974.67
2018-10-12T02:10:28.214Z,974.69
2018-10-12T02:11:28.186Z,974.63
2018-10-12T02:12:28.252Z,974.63
2018-10-12T02:13:28.280Z,974.65
2018-10-12T02:14:28.330Z,974.67
2018-10-12T02:15:28.375Z,974.71
2018-10-12T02:16:28.431Z,974.69
2018-10-12T02:17:28.576Z,974.65
2018-10-12T02:18:28.523Z,974.69
2018-10-12T02:19:28.568Z,974.64
2018-10-12T02:20:28.620Z,974.68
2018-10-12T02:21:28.672Z,974.67
2018-10-12T02:22:28.728Z,974.72
2018-10-12T02:23:28.772Z,974.74
2018-10-12T02:24:28.909Z,974.72
2018-10-12T02:25:28.880Z,974.75
2018-10-12T02:26:28.899Z,974.75
2018-10-12T02:27:28.948Z,974.76
2018-10-12T02:28:29.017Z,974.72
2018-10-12T02:29:29.044Z,974.75
2018-10-12T02:30:29.091Z,974.78
2018-10-12T02:31:29.253Z,974.82
2018-10-12T02:32:29.189Z,974.84
2018-10-12T02:33:29.260Z,974.84
2018-10-12T02:34:29.306Z,974.85
2018-10-12T02:35:29.351Z,974.86
2018-10-12T02:36:29.381Z,974.92
2018-10-12T02:37:29.437Z,974.97
2018-10-12T02:38:29.570Z,974.95
2018-10-12T02:39:29.524Z,974.98
2018-10-12T02:40:29.571Z,974.98
2018-10-12T02:41:29.620Z,974.98
2018-10-12T02:42:29.704Z,974.99
2018-10-12T02:43:29.716Z,975.06
2018-10-12T02:44:29.764Z,975.08
2018-10-12T02:45:29.812Z,975.08
2018-10-12T02:46:29.858Z,975.04
2018-10-12T02:47:29.928Z,975.09
2018-10-12T02:48:29.960Z,975.10
2018-10-12T02:49:30.000Z,975.08
2018-10-12T02:50:30.061Z,975.08
2018-10-12T02:51:30.094Z,975.12
2018-10-12T02:52:30.169Z,975.09
2018-10-12T02:53:30.191Z,975.09
2018-10-12T02:54:30.246Z,975.14
2018-10-12T02:55:30.313Z,975.17
2018-10-12T02:56:30.356Z,975.14
2018-10-12T02:57:30.406Z,975.19
2018-10-12T02:58:30.450Z,975.21
2018-10-12T02:59:30.481Z,975.23
2018-10-12T03:00:30.527Z,975.23
2018-10-12T03:01:30.640Z,975.24
2018-10-12T03:02:30.627Z,975.27
2018-10-12T03:03:30.669Z,975.29
2018-10-12T03:04:30.724Z,975.32
2018-10-12T03:05:30.782Z,975.33
2018-10-12T03:06:30.838Z,975.35
2018-10-12T03:07:30.862Z,975.37
2018-10-12T03:08:31.017Z,975.41
2018-10-12T03:09:30.957Z,975.41
2018-10-12T03:10:31.003Z,975.44
2018-10-12T03:11:31.055Z,975.43
2018-10-12T03:12:31.121Z,975.39
2018-10-12T03:13:31.144Z,975.41
2018-10-12T03:14:31.194Z,975.41
2018-10-12T03:15:31.285Z,975.38
2018-10-12T03:16:31.289Z,975.36
2018-10-12T03:17:31.357Z,975.39
2018-10-12T03:18:31.383Z,975.35
2018-10-12T03:19:31.458Z,975.40
2018-10-12T03:20:31.481Z,975.36
2018-10-12T03:21:31.525Z,975.37
2018-10-12T03:22:31.637Z,975.42
2018-10-12T03:23:31.631Z,975.43
2018-10-12T03:24:31.691Z,975.44
2018-10-12T03:25:31.715Z,975.47
2018-10-12T03:26:31.768Z,975.48
2018-10-12T03:27:31.817Z,975.52
2018-10-12T03:28:31.862Z,975.56
2018-10-12T03:29:31.961Z,975.55
2018-10-12T03:30:31.964Z,975.58
2018-10-12T03:31:32.014Z,975.58
2018-10-12T03:32:32.056Z,975.57
2018-10-12T03:33:32.122Z,975.58
2018-10-12T03:34:32.154Z,975.62
2018-10-12T03:35:32.215Z,975.62
2018-10-12T03:36:32.262Z,975.68
2018-10-12T03:37:32.292Z,975.67
2018-10-12T03:38:32.339Z,975.68
2018-10-12T03:39:32.392Z,975.67
2018-10-12T03:40:32.439Z,975.65
2018-10-12T03:41:32.504Z,975.71
2018-10-12T03:42:32.531Z,975.68
2018-10-12T03:43:32.582Z,975.72
2018-10-12T03:44:32.626Z,975.65
2018-10-12T03:45:32.677Z,975.67
2018-10-12T03:46:32.738Z,975.66
2018-10-12T03:47:32.767Z,975.70
2018-10-12T03:48:32.813Z,975.75
2018-10-12T03:49:32.862Z,975.76
2018-10-12T03:50:32.911Z,975.78
2018-10-12T03:51:32.980Z,975.78
2018-10-12T03:52:33.005Z,975.79
2018-10-12T03:53:33.054Z,975.79
2018-10-12T03:54:33.094Z,975.77
2018-10-12T03:55:33.143Z,975.80
2018-10-12T03:56:33.217Z,975.79
2018-10-12T03:57:33.243Z,975.82
2018-10-12T03:58:33.295Z,975.85
2018-10-12T03:59:33.334Z,975.84
2018-10-12T04:00:33.382Z,975.83
2018-10-12T04:01:33.451Z,975.84
2018-10-12T04:02:33.511Z,975.84
2018-10-12T04:03:33.541Z,975.86
2018-10-12T04:04:33.574Z,975.83
2018-10-12T04:05:33.618Z,975.85
2018-10-12T04:06:33.684Z,975.87
2018-10-12T04:07:33.722Z,975.90
2018-10-12T04:08:33.771Z,975.89
2018-10-12T04:09:33.812Z,975.89
2018-10-12T04:10:33.860Z,975.94
2018-10-12T04:11:34.052Z,975.93
2018-10-12T04:12:34.062Z,975.90
2018-10-12T04:13:34.013Z,975.90
2018-10-12T04:14:34.049Z,975.86
2018-10-12T04:15:34.100Z,975.89
2018-10-12T04:16:34.149Z,975.88
2018-10-12T04:17:34.217Z,975.88
2018-10-12T04:18:34.258Z,975.90
2018-10-12T04:19:34.297Z,975.93
2018-10-12T04:20:34.335Z,975.96
2018-10-12T04:21:34.382Z,975.97
2018-10-12T04:22:34.434Z,975.98
2018-10-12T04:23:34.498Z,975.99
2018-10-12T04:24:34.524Z,976.02
2018-10-12T04:25:34.575Z,976.00
2018-10-12T04:26:34.623Z,975.98
2018-10-12T04:27:34.686Z,975.99
2018-10-12T04:28:34.740Z,975.97
2018-10-12T04:29:34.765Z,975.97
2018-10-12T04:30:34.811Z,975.95
2018-10-12T04:31:34.855Z,975.93
2018-10-12T04:32:34.916Z,975.89
2018-10-12T04:33:34.965Z,975.91
2018-10-12T04:34:35.018Z,975.96
2018-10-12T04:35:35.048Z,975.95
2018-10-12T04:36:35.104Z,975.94
2018-10-12T04:37:35.141Z,975.98
2018-10-12T04:38:35.209Z,976.01
2018-10-12T04:39:35.257Z,976.02
2018-10-12T04:40:35.290Z,976.08
2018-10-12T04:41:35.341Z,976.09
2018-10-12T04:42:35.381Z,976.17
2018-10-12T04:43:35.436Z,976.20
2018-10-12T04:44:35.493Z,976.22
2018-10-12T04:45:36.028Z,976.23
2018-10-12T04:46:35.573Z,976.23
2018-10-12T04:47:35.618Z,976.25
2018-10-12T04:48:35.671Z,976.24
2018-10-12T04:49:35.731Z,976.27
2018-10-12T04:50:35.933Z,976.27
2018-10-12T04:51:35.822Z,976.27
2018-10-12T04:52:35.854Z,976.28
2018-10-12T04:53:35.956Z,976.30
2018-10-12T04:54:35.945Z,976.29
2018-10-12T04:55:36.034Z,976.34
2018-10-12T04:56:36.046Z,976.32
2018-10-12T04:57:36.087Z,976.34
2018-10-12T04:58:36.142Z,976.39
2018-10-12T04:59:36.186Z,976.38
2018-10-12T05:00:36.269Z,976.40
2018-10-12T05:01:36.279Z,976.40
2018-10-12T05:02:37.032Z,976.40
2018-10-12T05:03:36.376Z,976.40
2018-10-12T05:04:36.421Z,976.42
2018-10-12T05:05:36.486Z,976.37
2018-10-12T05:06:36.516Z,976.42
2018-10-12T05:07:36.646Z,976.41
2018-10-12T05:08:36.613Z,976.40
2018-10-12T05:09:36.780Z,976.38
2018-10-12T05:10:36.711Z,976.39
2018-10-12T05:11:36.757Z,976.41
2018-10-12T05:12:36.824Z,976.44
2018-10-12T05:13:36.855Z,976.47
2018-10-12T05:14:36.977Z,976.44
2018-10-12T05:15:36.944Z,976.44
2018-10-12T05:16:37.039Z,976.46
2018-10-12T05:17:37.059Z,976.43
2018-10-12T05:18:37.129Z,976.46
2018-10-12T05:19:37.145Z,976.47
2018-10-12T05:20:37.185Z,976.51
2018-10-12T05:21:37.234Z,976.50
2018-10-12T05:22:37.315Z,976.52
2018-10-12T05:23:37.332Z,976.55
2018-10-12T05:24:37.388Z,976.54
2018-10-12T05:25:38.031Z,976.58
2018-10-12T05:26:37.472Z,976.62
2018-10-12T05:27:37.512Z,976.63
2018-10-12T05:28:37.565Z,976.65
2018-10-12T05:29:37.623Z,976.67
2018-10-12T05:30:37.658Z,976.71
2018-10-12T05:31:37.703Z,976.76
2018-10-12T05:32:37.747Z,976.80
2018-10-12T05:33:37.801Z,976.81
2018-10-12T05:34:37.865Z,976.81
2018-10-12T05:35:37.888Z,976.78
2018-10-12T05:36:37.940Z,976.77
2018-10-12T05:37:37.983Z,976.76
2018-10-12T05:38:38.051Z,976.73
2018-10-12T05:39:38.091Z,976.74
2018-10-12T05:40:38.131Z,976.75
2018-10-12T05:41:38.177Z,976.71
2018-10-12T05:42:38.282Z,976.70
2018-10-12T05:43:38.353Z,976.71
2018-10-12T05:44:38.316Z,976.72
2018-10-12T05:45:38.361Z,976.75
2018-10-12T05:46:38.408Z,976.78
2018-10-12T05:47:38.477Z,976.78
2018-10-12T05:48:38.517Z,976.79
2018-10-12T05:49:38.554Z,976.78
2018-10-12T05:50:38.598Z,976.76
2018-10-12T05:51:38.644Z,976.74
2018-10-12T05:52:38.713Z,976.78
2018-10-12T05:53:38.822Z,976.81
2018-10-12T05:54:38.790Z,976.81
2018-10-12T05:55:38.909Z,976.79
2018-10-12T05:56:38.885Z,976.77
2018-10-12T05:57:38.931Z,976.84
2018-10-12T05:58:38.995Z,976.86
2018-10-12T05:59:39.024Z,976.90
2018-10-12T06:00:39.585Z,976.92
2018-10-12T06:01:39.120Z,976.93
2018-10-12T06:02:39.164Z,976.95
2018-10-12T06:03:39.210Z,976.98
2018-10-12T06:04:39.285Z,977.01
2018-10-12T06:05:39.314Z,977.01
2018-10-12T06:06:39.361Z,977.03
2018-10-12T06:07:39.447Z,977.04
2018-10-12T06:08:39.448Z,977.07
2018-10-12T06:09:39.564Z,977.10
2018-10-12T06:10:39.544Z,977.12
2018-10-12T06:11:39.593Z,977.13
2018-10-12T06:12:39.637Z,977.16
2018-10-12T06:13:39.694Z,977.18
2018-10-12T06:14:39.780Z,977.21
2018-10-12T06:15:39.823Z,977.22
2018-10-12T06:16:39.834Z,977.23
2018-10-12T06:17:39.895Z,977.26
2018-10-12T06:18:39.926Z,977.23
2018-10-12T06:19:39.979Z,977.22
2018-10-12T06:20:40.054Z,977.18
2018-10-12T06:21:40.170Z,977.24
2018-10-12T06:22:40.115Z,977.25
2018-10-12T06:23:40.177Z,977.24
2018-10-12T06:24:40.223Z,977.27
2018-10-12T06:25:40.280Z,977.30
2018-10-12T06:26:40.361Z,977.33
2018-10-12T06:27:40.361Z,977.36
2018-10-12T06:28:40.415Z,977.38
2018-10-12T06:29:40.456Z,977.42
2018-10-12T06:30:40.520Z,977.41
2018-10-12T06:31:40.543Z,977.40
2018-10-12T06:32:40.652Z,977.42
2018-10-12T06:33:40.644Z,977.42
2018-10-12T06:34:40.686Z,977.43
2018-10-12T06:35:40.733Z,977.44
2018-10-12T06:36:40.797Z,977.41
2018-10-12T06:37:40.830Z,977.49
2018-10-12T06:38:40.937Z,977.50
2018-10-12T06:39:40.929Z,977.52
2018-10-12T06:40:40.984Z,977.57
2018-10-12T06:41:41.143Z,977.60
2018-10-12T06:42:41.075Z,977.60
2018-10-12T06:43:41.115Z,977.62
2018-10-12T06:44:41.167Z,977.63
2018-10-12T06:45:41.255Z,977.65
2018-10-12T06:46:41.325Z,977.63
2018-10-12T06:47:41.305Z,977.64
2018-10-12T06:48:41.355Z,977.69
2018-10-12T06:49:41.413Z,977.70
2018-10-12T06:50:41.482Z,977.72
2018-10-12T06:51:41.561Z,977.71
2018-10-12T06:52:41.550Z,977.71
2018-10-12T06:53:41.593Z,977.72
2018-10-12T06:54:41.680Z,977.76
2018-10-12T06:55:41.697Z,977.81
2018-10-12T06:56:41.744Z,977.81
2018-10-12T06:57:41.786Z,977.84
2018-10-12T06:58:41.850Z,977.89
2018-10-12T06:59:41.918Z,977.92
2018-10-12T07:00:41.982Z,977.91
2018-10-12T07:01:41.980Z,977.94
2018-10-12T07:02:42.040Z,977.99
2018-10-12T07:03:42.102Z,978.00
2018-10-12T07:04:42.128Z,977.99
2018-10-12T07:05:42.324Z,978.04
2018-10-12T07:06:42.232Z,978.05
2018-10-12T07:07:42.269Z,978.06
2018-10-12T07:08:43.239Z,978.07
2018-10-12T07:09:42.387Z,978.05
2018-10-12T07:10:42.417Z,978.06
2018-10-12T07:11:42.464Z,978.06
2018-10-12T07:12:42.519Z,978.05
2018-10-12T07:13:42.644Z,978.01
2018-10-12T07:14:42.606Z,978.00
2018-10-12T07:15:42.664Z,978.01
2018-10-12T07:16:42.703Z,978.01
2018-10-12T07:17:42.759Z,977.98
2018-10-12T07:18:42.824Z,978.05
2018-10-12T07:19:43.254Z,978.07
2018-10-12T07:20:42.925Z,978.06
2018-10-12T07:21:42.954Z,978.07
2018-10-12T07:22:43.002Z,978.10
2018-10-12T07:23:43.053Z,978.16
2018-10-12T07:24:43.098Z,978.16
2018-10-12T07:25:43.358Z,978.18
2018-10-12T07:26:43.194Z,978.18
2018-10-12T07:27:43.258Z,978.19
2018-10-12T07:28:43.299Z,978.20
2018-10-12T07:29:43.346Z,978.22
2018-10-12T07:30:43.419Z,978.25
2018-10-12T07:31:43.456Z,978.23
2018-10-12T07:32:43.515Z,978.20
2018-10-12T07:33:43.558Z,978.24
2018-10-12T07:34:43.613Z,978.24
2018-10-12T07:35:43.653Z,978.27
2018-10-12T07:36:43.730Z,978.23
2018-10-12T07:37:43.757Z,978.25
2018-10-12T07:38:43.805Z,978.28
2018-10-12T07:39:43.848Z,978.26
2018-10-12T07:40:43.902Z,978.32
2018-10-12T07:41:43.995Z,978.26
2018-10-12T07:42:44.007Z,978.30
2018-10-12T07:43:44.055Z,978.30
2018-10-12T07:44:44.108Z,978.30
2018-10-12T07:45:44.166Z,978.25
2018-10-12T07:46:44.232Z,978.25
2018-10-12T07:47:44.263Z,978.28
2018-10-12T07:48:44.319Z,978.30
2018-10-12T07:49:44.376Z,978.28
2018-10-12T07:50:44.418Z,978.28
2018-10-12T07:51:44.506Z,978.27
2018-10-12T07:52:44.520Z,978.24
2018-10-12T07:53:44.591Z,978.26
2018-10-12T07:54:44.707Z,978.30
2018-10-12T07:55:44.676Z,978.28
2018-10-12T07:56:44.732Z,978.27
2018-10-12T07:57:44.782Z,978.33
2018-10-12T07:58:44.834Z,978.33
2018-10-12T07:59:44.912Z,978.34
2018-10-12T08:00:44.993Z,978.40
2018-10-12T08:01:45.009Z,978.38
2018-10-12T08:02:45.047Z,978.38
2018-10-12T08:03:45.098Z,978.40
2018-10-12T08:04:45.184Z,978.39
2018-10-12T08:05:45.201Z,978.46
2018-10-12T08:06:45.293Z,978.44
2018-10-12T08:07:45.312Z,978.47
2018-10-12T08:08:45.364Z,978.46
2018-10-12T08:09:45.493Z,978.45
2018-10-12T08:10:45.482Z,978.45
2018-10-12T08:11:45.544Z,978.43
2018-10-12T08:12:45.572Z,978.42
2018-10-12T08:13:45.662Z,978.45
2018-10-12T08:14:45.698Z,978.46
2018-10-12T08:15:45.753Z,978.41
2018-10-12T08:16:45.788Z,978.44
2018-10-12T08:17:45.842Z,978.46
2018-10-12T08:18:45.893Z,978.43
2018-10-12T08:19:45.956Z,978.46
2018-10-12T08:20:46.115Z,978.45
2018-10-12T08:21:46.066Z,978.45
2018-10-12T08:22:46.112Z,978.39
2018-10-12T08:23:46.169Z,978.40
2018-10-12T08:24:46.221Z,978.42
2018-10-12T08:25:46.289Z,978.43
2018-10-12T08:26:46.335Z,978.52
2018-10-12T08:27:46.456Z,978.52
2018-10-12T08:28:46.438Z,978.58
2018-10-12T08:29:46.511Z,978.57
2018-10-12T08:30:46.545Z,978.60
2018-10-12T08:31:46.612Z,978.64
2018-10-12T08:32:46.650Z,978.64
2018-10-12T08:33:46.733Z,978.65
2018-10-12T08:34:46.816Z,978.66
2018-10-12T08:35:46.827Z,978.64
2018-10-12T08:36:46.876Z,978.62
2018-10-12T08:37:46.936Z,978.69
2018-10-12T08:38:47.005Z,978.67
2018-10-12T08:39:47.033Z,978.63
2018-10-12T08:40:47.095Z,978.68
2018-10-12T08:41:47.209Z,978.66
2018-10-12T08:42:47.194Z,978.67
2018-10-12T08:43:47.275Z,978.67
2018-10-12T08:44:47.343Z,978.67
2018-10-12T08:45:47.382Z,978.69
2018-10-12T08:46:47.433Z,978.70
2018-10-12T08:47:47.474Z,978.74
2018-10-12T08:48:47.549Z,978.73
2018-10-12T08:49:47.581Z,978.75
2018-10-12T08:50:47.641Z,978.74
2018-10-12T08:51:47.731Z,978.73
2018-10-12T08:52:47.752Z,978.75
2018-10-12T08:53:47.893Z,978.77
2018-10-12T08:54:47.855Z,978.76
2018-10-12T08:55:47.907Z,978.71
2018-10-12T08:56:47.986Z,978.75
2018-10-12T08:57:48.016Z,978.78
2018-10-12T08:58:48.082Z,978.72
2018-10-12T08:59:48.123Z,978.70
2018-10-12T09:00:48.221Z,978.70
2018-10-12T09:01:48.249Z,978.72
2018-10-12T09:02:48.289Z,978.70
2018-10-12T09:03:48.352Z,978.72
2018-10-12T09:04:48.405Z,978.72
2018-10-12T09:05:48.452Z,978.72
2018-10-12T09:06:48.530Z,978.70
2018-10-12T09:07:48.561Z,978.67
2018-10-12T09:08:48.606Z,978.68
2018-10-12T09:09:48.718Z,978.65
2018-10-12T09:10:48.732Z,978.70
2018-10-12T09:11:48.795Z,978.69
2018-10-12T09:12:48.844Z,978.71
2018-10-12T09:13:48.884Z,978.68
2018-10-12T09:14:48.952Z,978.66
2018-10-12T09:15:49.019Z,978.65
2018-10-12T09:16:49.056Z,978.63
2018-10-12T09:17:49.104Z,978.59
2018-10-12T09:18:49.152Z,978.59
2018-10-12T09:19:49.326Z,978.57
2018-10-12T09:20:49.333Z,978.57
2018-10-12T09:21:49.319Z,978.56
2018-10-12T09:22:49.381Z,978.56
2018-10-12T09:23:49.428Z,978.54
2018-10-12T09:24:49.473Z,978.54
2018-10-12T09:25:49.561Z,978.53
2018-10-12T09:26:49.589Z,978.53
2018-10-12T09:27:49.661Z,978.46
2018-10-12T09:28:49.688Z,978.45
2018-10-12T09:29:49.743Z,978.40
2018-10-12T09:30:49.804Z,978.37
2018-10-12T09:31:49.883Z,978.33
2018-10-12T09:32:49.927Z,978.36
2018-10-12T09:33:50.019Z,978.36
2018-10-12T09:34:50.033Z,978.33
2018-10-12T09:35:50.074Z,978.35
2018-10-12T09:36:50.137Z,978.37
2018-10-12T09:37:50.186Z,978.39
2018-10-12T09:38:50.232Z,978.36
2018-10-12T09:39:50.325Z,978.37
2018-10-12T09:40:50.384Z,978.42
2018-10-12T09:41:50.401Z,978.40
2018-10-12T09:42:50.457Z,978.44
2018-10-12T09:43:50.503Z,978.42
2018-10-12T09:44:50.561Z,978.43
2018-10-12T09:45:50.648Z,978.39
2018-10-12T09:46:50.672Z,978.36
2018-10-12T09:47:50.724Z,978.37
2018-10-12T09:48:50.780Z,978.35
2018-10-12T09:49:50.849Z,978.30
2018-10-12T09:50:50.910Z,978.27
2018-10-12T09:51:50.947Z,978.28
2018-10-12T09:52:51.001Z,978.26
2018-10-12T09:53:51.066Z,978.25
2018-10-12T09:54:51.114Z,978.21
2018-10-12T09:55:51.257Z,978.26
2018-10-12T09:56:51.256Z,978.24
2018-10-12T09:57:51.304Z,978.22
2018-10-12T09:58:51.351Z,978.22
2018-10-12T09:59:51.421Z,978.25
2018-10-12T10:00:51.493Z,978.15
2018-10-12T10:01:51.573Z,978.18
2018-10-12T10:02:51.570Z,978.16
2018-10-12T10:03:51.630Z,978.15
2018-10-12T10:04:51.678Z,978.17
2018-10-12T10:05:51.754Z,978.15
2018-10-12T10:06:51.792Z,978.17
2018-10-12T10:07:51.999Z,978.10
2018-10-12T10:08:51.985Z,978.11
2018-10-12T10:09:51.954Z,978.12
2018-10-12T10:10:52.019Z,978.08
2018-10-12T10:11:52.082Z,978.09
2018-10-12T10:12:52.168Z,978.10
2018-10-12T10:13:52.253Z,978.06
2018-10-12T10:14:52.238Z,978.03
2018-10-12T10:15:52.292Z,978.02
2018-10-12T10:16:52.351Z,978.05
2018-10-12T10:17:52.447Z,978.02
2018-10-12T10:18:52.482Z,978.02
2018-10-12T10:19:52.530Z,978.02
2018-10-12T10:20:52.576Z,978.01
2018-10-12T10:21:52.639Z,977.99
2018-10-12T10:22:52.693Z,978.01
2018-10-12T10:23:52.767Z,977.99
2018-10-12T10:24:52.850Z,978.01
2018-10-12T10:25:52.873Z,977.98
2018-10-12T10:26:52.922Z,977.99
2018-10-12T10:27:52.987Z,977.98
2018-10-12T10:28:53.045Z,978.05
2018-10-12T10:29:53.127Z,978.01
2018-10-12T10:30:53.151Z,977.96
2018-10-12T10:31:53.627Z,977.99
2018-10-12T10:32:53.269Z,978.01
2018-10-12T10:33:53.339Z,978.00
2018-10-12T10:34:53.379Z,978.00
2018-10-12T10:35:53.456Z,978.03
2018-10-12T10:36:53.501Z,977.97
2018-10-12T10:37:53.596Z,977.98
2018-10-12T10:38:53.639Z,977.96
2018-10-12T10:39:53.651Z,977.92
2018-10-12T10:40:53.762Z,977.94
2018-10-12T10:41:53.763Z,977.93
2018-10-12T10:42:53.826Z,977.92
2018-10-12T10:43:53.894Z,977.87
2018-10-12T10:44:53.929Z,977.85
2018-10-12T10:45:54.012Z,977.86
2018-10-12T10:46:54.046Z,977.80
2018-10-12T10:47:54.095Z,977.80
2018-10-12T10:48:54.150Z,977.76
2018-10-12T10:49:54.202Z,977.75
2018-10-12T10:50:54.306Z,977.75
2018-10-12T10:51:54.318Z,977.73
2018-10-12T10:52:54.372Z,977.75
2018-10-12T10:53:54.433Z,977.73
2018-10-12T10:54:54.484Z,977.70
2018-10-12T10:55:54.558Z,977.68
2018-10-12T10:56:54.598Z,977.69
2018-10-12T10:57:54.656Z,977.66
2018-10-12T10:58:54.706Z,977.67
2018-10-12T10:59:54.759Z,977.65
2018-10-12T11:00:54.866Z,977.65
2018-10-12T11:01:54.887Z,977.62
2018-10-12T11:02:54.931Z,977.64
2018-10-12T11:03:55.009Z,977.60
2018-10-12T11:04:55.033Z,977.58
2018-10-12T11:05:55.117Z,977.54
2018-10-12T11:06:55.177Z,977.49
2018-10-12T11:07:55.205Z,977.44
2018-10-12T11:08:55.270Z,977.43
2018-10-12T11:09:55.332Z,977.38
2018-10-12T11:10:55.378Z,977.35
2018-10-12T11:11:55.428Z,977.31
2018-10-12T11:12:55.651Z,977.26
2018-10-12T11:13:55.546Z,977.24
2018-10-12T11:14:55.592Z,977.24
2018-10-12T11:15:56.688Z,977.20
2018-10-12T11:16:55.731Z,977.22
2018-10-12T11:17:55.767Z,977.26
2018-10-12T11:18:55.819Z,977.25
2018-10-12T11:19:55.869Z,977.28
2018-10-12T11:20:55.926Z,977.30
2018-10-12T11:21:55.999Z,977.27
2018-10-12T11:22:56.073Z,977.27
2018-10-12T11:23:56.096Z,977.27
2018-10-12T11:24:56.165Z,977.22
2018-10-12T11:25:56.213Z,977.26
2018-10-12T11:26:56.318Z,977.20
2018-10-12T11:27:56.344Z,977.20
2018-10-12T11:28:56.403Z,977.20
2018-10-12T11:29:56.431Z,977.16
2018-10-12T11:30:56.487Z,977.13
2018-10-12T11:31:56.545Z,977.14
2018-10-12T11:32:56.786Z,977.08
2018-10-12T11:33:56.685Z,977.05
2018-10-12T11:34:56.714Z,977.08
2018-10-12T11:35:56.772Z,977.07
2018-10-12T11:36:56.827Z,977.03
2018-10-12T11:37:56.903Z,977.01
2018-10-12T11:38:56.938Z,977.00
2018-10-12T11:39:56.998Z,977.01
2018-10-12T11:40:57.074Z,977.00
2018-10-12T11:41:57.126Z,977.00
2018-10-12T11:42:57.192Z,977.01
2018-10-12T11:43:57.233Z,976.99
2018-10-12T11:44:57.332Z,976.91
2018-10-12T11:45:57.336Z,976.94
2018-10-12T11:46:57.395Z,976.94
2018-10-12T11:47:57.454Z,976.92
2018-10-12T11:48:57.521Z,976.96
2018-10-12T11:49:57.598Z,976.94
2018-10-12T11:50:57.646Z,976.94
2018-10-12T11:51:57.750Z,976.90
2018-10-12T11:52:57.743Z,976.85
2018-10-12T11:53:57.815Z,976.90
2018-10-12T11:54:57.866Z,976.88
2018-10-12T11:55:57.942Z,976.89
2018-10-12T11:56:57.980Z,976.89
2018-10-12T11:57:58.045Z,976.90
2018-10-12T11:58:58.139Z,976.89
2018-10-12T11:59:58.160Z,976.86
2018-10-12T12:00:58.233Z,976.79
2018-10-12T12:01:58.275Z,976.79
2018-10-12T12:02:58.331Z,976.81
2018-10-12T12:03:58.419Z,976.78
2018-10-12T12:04:58.460Z,976.75
2018-10-12T12:05:58.602Z,976.76
2018-10-12T12:06:58.579Z,976.71
2018-10-12T12:07:58.631Z,976.73
2018-10-12T12:08:58.714Z,976.78
2018-10-12T12:09:58.748Z,976.72
2018-10-12T12:10:58.819Z,976.72
2018-10-12T12:11:58.885Z,976.73
2018-10-12T12:12:58.942Z,976.67
2018-10-12T12:13:59.051Z,976.63
2018-10-12T12:14:59.045Z,976.64
2018-10-12T12:15:59.136Z,976.60
2018-10-12T12:16:59.162Z,976.58
2018-10-12T12:17:59.226Z,976.60
2018-10-12T12:18:59.309Z,976.60
2018-10-12T12:19:59.351Z,976.57
2018-10-12T12:20:59.468Z,976.54
2018-10-12T12:21:59.464Z,976.50
2018-10-12T12:22:59.518Z,976.50
2018-10-12T12:23:59.601Z,976.52
2018-10-12T12:24:59.701Z,976.53
2018-10-12T12:25:59.711Z,976.58
2018-10-12T12:26:59.774Z,976.54
2018-10-12T12:27:59.815Z,976.58
2018-10-12T12:28:59.907Z,976.51